Asolare — ZCDI3 — position and weather

sailwx.info

Track history (hours):
 
Tides and Currents Weather Stations Pressure Air Temp Water Temp Dewpoint Dewpoint Depression Visibility Wind Speed Wind Dir Waves Ship Positions

Asolare

Last reported at 2015-Jan-29 19:18 UTC. Time now 2015-Jan-30 23:21 UTC.
Position N 18°02' W 063°06'.

Length 47 m; draft 4.9 m.

Type: Sailing vessel. MMSI: 310413000.

Date/timePositionNaut miles runAvg speedWind from/ knotsBaromVisibWave heightAir tempDewpointWater temp
2015-Jan-29 19:18N 18°02' W 063°06'0 0.0
2015-Jan-29 16:33N 18°02' W 063°06'0 0.0
2015-Jan-29 15:27N 18°02' W 063°06'0 0.0
2015-Jan-28 19:30N 18°02' W 063°06'0 0.0
2015-Jan-28 01:29N 18°02' W 063°06'0 0.0
2015-Jan-27 08:26N 18°02' W 063°06'0 0.0
2015-Jan-26 06:23N 18°02' W 063°06'0 0.0
2015-Jan-25 03:26N 18°02' W 063°06'0 0.0
2015-Jan-24 19:17N 18°02' W 063°06'0 0.0
2015-Jan-24 16:14N 18°02' W 063°06'0 0.0
2015-Jan-24 15:10N 18°02' W 063°06'0 0.0
2015-Jan-24 14:07N 18°02' W 063°06'1 0.9
2015-Jan-24 13:14N 18°02' W 063°06'76 3.8
2015-Jan-23 17:33N 18°22' W 064°23'6 3.0
2015-Jan-23 15:31N 18°27' W 064°27'2 1.7
2015-Jan-23 14:28N 18°29' W 064°25'0 0.0
2015-Jan-23 13:33N 18°29' W 064°25'4 4.0
2015-Jan-23 12:33N 18°28' W 064°29'5 3.4
2015-Jan-23 11:06N 18°28' W 064°35'  
2015-Jan-21 06:33N 18°27' W 064°43'0 0.0
2015-Jan-21 05:33N 18°27' W 064°43'0 0.0
2015-Jan-21 04:33N 18°27' W 064°43'0 0.0
2015-Jan-21 03:33N 18°27' W 064°43'0 0.0
2015-Jan-21 02:33N 18°27' W 064°43'0 0.0
2015-Jan-21 01:33N 18°27' W 064°43'0 0.0
2015-Jan-21 00:33N 18°27' W 064°43'0 0.0
2015-Jan-20 23:33N 18°27' W 064°43'0 0.0
2015-Jan-20 22:33N 18°27' W 064°43'0 0.0
2015-Jan-20 21:34N 18°27' W 064°43'0 0.0
2015-Jan-20 20:33N 18°27' W 064°43'0 0.0
2015-Jan-20 19:33N 18°27' W 064°43'0 0.0
2015-Jan-20 18:33N 18°27' W 064°43'0 0.2
2015-Jan-20 17:33N 18°27' W 064°43'0 0.0
2015-Jan-20 16:33N 18°27' W 064°43'4 4.5
2015-Jan-20 15:33N 18°23' W 064°42'1010.2
2015-Jan-20 14:33N 18°25' W 064°31'  
Track history (hours):
 
Tides and Currents Weather Stations Pressure Air Temp Water Temp Dewpoint Dewpoint Depression Visibility Wind Speed Wind Dir Waves Ship Positions

Asolare

Last reported at 2015-Jan-29 19:18 UTC. Time now 2015-Jan-30 23:21 UTC.
Position N 18°02' W 063°06'.

Length 47 m; draft 4.9 m.

Type: Sailing vessel. MMSI: 310413000.

Date/timePositionNaut miles runAvg speedWind from/ knotsBaromVisibWave heightAir tempDewpointWater temp
2015-Jan-29 19:18N 18°02' W 063°06'0 0.0
2015-Jan-29 16:33N 18°02' W 063°06'0 0.0
2015-Jan-29 15:27N 18°02' W 063°06'0 0.0
2015-Jan-28 19:30N 18°02' W 063°06'0 0.0
2015-Jan-28 01:29N 18°02' W 063°06'0 0.0
2015-Jan-27 08:26N 18°02' W 063°06'0 0.0
2015-Jan-26 06:23N 18°02' W 063°06'0 0.0
2015-Jan-25 03:26N 18°02' W 063°06'0 0.0
2015-Jan-24 19:17N 18°02' W 063°06'0 0.0
2015-Jan-24 16:14N 18°02' W 063°06'0 0.0
2015-Jan-24 15:10N 18°02' W 063°06'0 0.0
2015-Jan-24 14:07N 18°02' W 063°06'1 0.9
2015-Jan-24 13:14N 18°02' W 063°06'76 3.8
2015-Jan-23 17:33N 18°22' W 064°23'6 3.0
2015-Jan-23 15:31N 18°27' W 064°27'2 1.7
2015-Jan-23 14:28N 18°29' W 064°25'0 0.0
2015-Jan-23 13:33N 18°29' W 064°25'4 4.0
2015-Jan-23 12:33N 18°28' W 064°29'5 3.4
2015-Jan-23 11:06N 18°28' W 064°35'  
2015-Jan-21 06:33N 18°27' W 064°43'0 0.0
2015-Jan-21 05:33N 18°27' W 064°43'0 0.0
2015-Jan-21 04:33N 18°27' W 064°43'0 0.0
2015-Jan-21 03:33N 18°27' W 064°43'0 0.0
2015-Jan-21 02:33N 18°27' W 064°43'0 0.0
2015-Jan-21 01:33N 18°27' W 064°43'0 0.0
2015-Jan-21 00:33N 18°27' W 064°43'0 0.0
2015-Jan-20 23:33N 18°27' W 064°43'0 0.0
2015-Jan-20 22:33N 18°27' W 064°43'0 0.0
2015-Jan-20 21:34N 18°27' W 064°43'0 0.0
2015-Jan-20 20:33N 18°27' W 064°43'0 0.0
2015-Jan-20 19:33N 18°27' W 064°43'0 0.0
2015-Jan-20 18:33N 18°27' W 064°43'0 0.2
2015-Jan-20 17:33N 18°27' W 064°43'0 0.0
2015-Jan-20 16:33N 18°27' W 064°43'4 4.5
2015-Jan-20 15:33N 18°23' W 064°42'1010.2
2015-Jan-20 14:33N 18°25' W 064°31'  

Dump ship's entire track history